sensor_id;sensor_type;location;lat;lon;timestamp;temperature;humidity
18894;DHT22;9579;49.488;8.226;2023-04-15T00:00:45;9.00;94.20
18894;DHT22;9579;49.488;8.226;2023-04-15T00:03:32;9.00;93.40
18894;DHT22;9579;49.488;8.226;2023-04-15T00:06:20;8.90;93.50
18894;DHT22;9579;49.488;8.226;2023-04-15T00:09:07;8.80;93.90
18894;DHT22;9579;49.488;8.226;2023-04-15T00:11:54;8.70;94.00
18894;DHT22;9579;49.488;8.226;2023-04-15T00:14:42;8.60;94.40
18894;DHT22;9579;49.488;8.226;2023-04-15T00:17:31;8.40;94.40
18894;DHT22;9579;49.488;8.226;2023-04-15T00:30:07;8.30;94.80
18894;DHT22;9579;49.488;8.226;2023-04-15T00:33:35;8.20;94.80
18894;DHT22;9579;49.488;8.226;2023-04-15T00:37:09;8.30;94.60
18894;DHT22;9579;49.488;8.226;2023-04-15T00:44:56;8.40;94.00
18894;DHT22;9579;49.488;8.226;2023-04-15T01:02:37;8.20;94.30
18894;DHT22;9579;49.488;8.226;2023-04-15T01:11:39;8.60;94.50
18894;DHT22;9579;49.488;8.226;2023-04-15T01:14:42;8.50;94.40
18894;DHT22;9579;49.488;8.226;2023-04-15T01:17:34;8.20;94.10
18894;DHT22;9579;49.488;8.226;2023-04-15T01:20:23;8.60;94.30
18894;DHT22;9579;49.488;8.226;2023-04-15T01:23:18;8.50;94.20
18894;DHT22;9579;49.488;8.226;2023-04-15T01:26:16;8.20;94.50
18894;DHT22;9579;49.488;8.226;2023-04-15T01:42:56;8.60;94.70
18894;DHT22;9579;49.488;8.226;2023-04-15T01:46:41;8.60;94.30
18894;DHT22;9579;49.488;8.226;2023-04-15T01:49:51;8.40;94.20
18894;DHT22;9579;49.488;8.226;2023-04-15T01:52:59;7.70;94.30
18894;DHT22;9579;49.488;8.226;2023-04-15T01:56:10;8.20;94.20
18894;DHT22;9579;49.488;8.226;2023-04-15T01:59:04;8.00;94.80
18894;DHT22;9579;49.488;8.226;2023-04-15T02:02:02;8.10;94.70
18894;DHT22;9579;49.488;8.226;2023-04-15T02:04:56;8.00;94.50
18894;DHT22;9579;49.488;8.226;2023-04-15T02:10:26;8.00;94.80
18894;DHT22;9579;49.488;8.226;2023-04-15T02:13:21;7.50;94.60
18894;DHT22;9579;49.488;8.226;2023-04-15T02:16:32;7.70;93.80
18894;DHT22;9579;49.488;8.226;2023-04-15T02:19:23;7.20;94.30
18894;DHT22;9579;49.488;8.226;2023-04-15T02:22:19;7.40;94.80
18894;DHT22;9579;49.488;8.226;2023-04-15T03:00:48;7.30;95.50
18894;DHT22;9579;49.488;8.226;2023-04-15T03:03:44;6.90;95.70
18894;DHT22;9579;49.488;8.226;2023-04-15T03:06:35;7.10;95.70
18894;DHT22;9579;49.488;8.226;2023-04-15T03:09:28;6.90;95.50
18894;DHT22;9579;49.488;8.226;2023-04-15T03:15:17;7.60;95.30
18894;DHT22;9579;49.488;8.226;2023-04-15T03:21:30;7.60;94.90
18894;DHT22;9579;49.488;8.226;2023-04-15T03:24:20;7.50;95.10
18894;DHT22;9579;49.488;8.226;2023-04-15T03:27:12;7.90;95.20
18894;DHT22;9579;49.488;8.226;2023-04-15T03:30:07;7.40;94.90
18894;DHT22;9579;49.488;8.226;2023-04-15T03:35:37;7.20;94.30
18894;DHT22;9579;49.488;8.226;2023-04-15T03:38:35;7.30;94.80
18894;DHT22;9579;49.488;8.226;2023-04-15T03:41:27;5.40;94.70
18894;DHT22;9579;49.488;8.226;2023-04-15T03:44:26;6.40;95.20
18894;DHT22;9579;49.488;8.226;2023-04-15T03:47:16;7.10;95.70
18894;DHT22;9579;49.488;8.226;2023-04-15T03:50:05;6.70;95.80
18894;DHT22;9579;49.488;8.226;2023-04-15T03:55:30;6.80;95.60
18894;DHT22;9579;49.488;8.226;2023-04-15T03:58:18;6.70;95.70
18894;DHT22;9579;49.488;8.226;2023-04-15T04:01:05;6.50;96.10
18894;DHT22;9579;49.488;8.226;2023-04-15T04:03:53;6.60;96.10
18894;DHT22;9579;49.488;8.226;2023-04-15T04:06:41;6.60;96.20
18894;DHT22;9579;49.488;8.226;2023-04-15T04:09:29;6.20;96.20
18894;DHT22;9579;49.488;8.226;2023-04-15T04:15:15;6.70;96.60
18894;DHT22;9579;49.488;8.226;2023-04-15T04:18:05;6.90;96.30
18894;DHT22;9579;49.488;8.226;2023-04-15T04:20:56;7.10;96.30
18894;DHT22;9579;49.488;8.226;2023-04-15T04:23:45;6.40;95.80
18894;DHT22;9579;49.488;8.226;2023-04-15T04:26:32;6.80;96.20
18894;DHT22;9579;49.488;8.226;2023-04-15T04:29:21;6.70;96.10
18894;DHT22;9579;49.488;8.226;2023-04-15T04:32:12;6.50;96.50
18894;DHT22;9579;49.488;8.226;2023-04-15T04:35:02;6.60;96.30
18894;DHT22;9579;49.488;8.226;2023-04-15T04:38:06;6.30;96.40
18894;DHT22;9579;49.488;8.226;2023-04-15T04:43:45;7.00;96.40
18894;DHT22;9579;49.488;8.226;2023-04-15T04:46:38;7.10;96.00
18894;DHT22;9579;49.488;8.226;2023-04-15T04:49:42;7.50;95.90
18894;DHT22;9579;49.488;8.226;2023-04-15T04:52:32;6.80;95.10
18894;DHT22;9579;49.488;8.226;2023-04-15T04:55:21;7.20;95.50
18894;DHT22;9579;49.488;8.226;2023-04-15T06:27:12;10.90;92.90
18894;DHT22;9579;49.488;8.226;2023-04-15T06:29:59;11.10;92.80
18894;DHT22;9579;49.488;8.226;2023-04-15T06:32:46;11.40;92.80
18894;DHT22;9579;49.488;8.226;2023-04-15T06:35:33;11.50;92.80
18894;DHT22;9579;49.488;8.226;2023-04-15T06:38:20;11.70;93.00
18894;DHT22;9579;49.488;8.226;2023-04-15T06:41:07;12.00;92.90
18894;DHT22;9579;49.488;8.226;2023-04-15T06:43:55;12.10;92.80
18894;DHT22;9579;49.488;8.226;2023-04-15T06:46:42;12.30;92.70
18894;DHT22;9579;49.488;8.226;2023-04-15T06:49:30;12.20;92.90
18894;DHT22;9579;49.488;8.226;2023-04-15T06:52:18;12.30;93.20
18894;DHT22;9579;49.488;8.226;2023-04-15T06:55:06;12.70;93.10
18894;DHT22;9579;49.488;8.226;2023-04-15T06:57:53;13.00;92.60
18894;DHT22;9579;49.488;8.226;2023-04-15T07:00:42;13.30;92.30
18894;DHT22;9579;49.488;8.226;2023-04-15T07:03:29;13.50;92.00
18894;DHT22;9579;49.488;8.226;2023-04-15T07:06:19;13.70;92.00
18894;DHT22;9579;49.488;8.226;2023-04-15T07:09:06;13.80;90.80
18894;DHT22;9579;49.488;8.226;2023-04-15T07:11:54;14.00;90.70
18894;DHT22;9579;49.488;8.226;2023-04-15T07:14:44;14.40;90.00
18894;DHT22;9579;49.488;8.226;2023-04-15T07:17:32;14.50;90.10
18894;DHT22;9579;49.488;8.226;2023-04-15T07:20:20;14.70;90.30
18894;DHT22;9579;49.488;8.226;2023-04-15T07:23:07;14.90;89.20
18894;DHT22;9579;49.488;8.226;2023-04-15T07:25:54;15.10;89.00
18894;DHT22;9579;49.488;8.226;2023-04-15T07:28:41;15.20;87.80
18894;DHT22;9579;49.488;8.226;2023-04-15T07:31:28;15.20;88.60
18894;DHT22;9579;49.488;8.226;2023-04-15T07:34:18;15.20;88.90
18894;DHT22;9579;49.488;8.226;2023-04-15T07:37:05;15.30;89.30
18894;DHT22;9579;49.488;8.226;2023-04-15T07:39:52;15.30;89.90
18894;DHT22;9579;49.488;8.226;2023-04-15T07:42:39;15.30;90.20
18894;DHT22;9579;49.488;8.226;2023-04-15T07:45:27;15.40;90.60
18894;DHT22;9579;49.488;8.226;2023-04-15T07:48:14;15.40;90.30
18894;DHT22;9579;49.488;8.226;2023-04-15T07:51:03;15.30;90.10
18894;DHT22;9579;49.488;8.226;2023-04-15T07:53:50;15.20;90.50
18894;DHT22;9579;49.488;8.226;2023-04-15T07:56:37;15.10;90.60
18894;DHT22;9579;49.488;8.226;2023-04-15T07:59:24;15.20;90.20
18894;DHT22;9579;49.488;8.226;2023-04-15T08:02:12;15.30;90.60
18894;DHT22;9579;49.488;8.226;2023-04-15T08:05:00;15.50;91.10
18894;DHT22;9579;49.488;8.226;2023-04-15T08:07:49;15.40;91.00
18894;DHT22;9579;49.488;8.226;2023-04-15T08:10:36;15.40;91.10
18894;DHT22;9579;49.488;8.226;2023-04-15T08:13:24;15.40;91.20
18894;DHT22;9579;49.488;8.226;2023-04-15T08:16:22;15.30;90.70
18894;DHT22;9579;49.488;8.226;2023-04-15T08:19:09;15.40;91.20
18894;DHT22;9579;49.488;8.226;2023-04-15T08:21:56;15.20;90.90
18894;DHT22;9579;49.488;8.226;2023-04-15T08:24:44;15.30;91.60
18894;DHT22;9579;49.488;8.226;2023-04-15T08:27:32;15.20;91.50
18894;DHT22;9579;49.488;8.226;2023-04-15T08:30:19;15.40;91.30
18894;DHT22;9579;49.488;8.226;2023-04-15T08:33:06;15.40;91.20
18894;DHT22;9579;49.488;8.226;2023-04-15T08:35:53;15.40;91.60
18894;DHT22;9579;49.488;8.226;2023-04-15T08:38:40;15.30;91.10
18894;DHT22;9579;49.488;8.226;2023-04-15T08:41:33;15.40;91.50
18894;DHT22;9579;49.488;8.226;2023-04-15T08:44:23;15.30;92.00
18894;DHT22;9579;49.488;8.226;2023-04-15T08:47:12;15.50;92.10
18894;DHT22;9579;49.488;8.226;2023-04-15T08:50:01;15.80;91.90
18894;DHT22;9579;49.488;8.226;2023-04-15T08:52:53;15.90;91.80
18894;DHT22;9579;49.488;8.226;2023-04-15T08:55:42;16.00;91.00
18894;DHT22;9579;49.488;8.226;2023-04-15T08:58:32;16.10;90.70
18894;DHT22;9579;49.488;8.226;2023-04-15T09:01:19;16.00;90.40
18894;DHT22;9579;49.488;8.226;2023-04-15T09:04:06;15.90;90.20
18894;DHT22;9579;49.488;8.226;2023-04-15T09:06:53;15.80;90.00
18894;DHT22;9579;49.488;8.226;2023-04-15T09:09:41;15.80;90.20
18894;DHT22;9579;49.488;8.226;2023-04-15T09:12:29;15.70;90.20
18894;DHT22;9579;49.488;8.226;2023-04-15T09:15:17;15.60;90.40
18894;DHT22;9579;49.488;8.226;2023-04-15T09:18:05;15.50;90.40
18894;DHT22;9579;49.488;8.226;2023-04-15T09:20:52;15.50;90.70
18894;DHT22;9579;49.488;8.226;2023-04-15T09:23:40;15.50;90.50
18894;DHT22;9579;49.488;8.226;2023-04-15T09:26:35;15.60;90.60
18894;DHT22;9579;49.488;8.226;2023-04-15T09:29:23;15.70;91.00
18894;DHT22;9579;49.488;8.226;2023-04-15T09:32:14;15.70;91.00
18894;DHT22;9579;49.488;8.226;2023-04-15T09:35:10;15.80;91.20
18894;DHT22;9579;49.488;8.226;2023-04-15T09:38:02;15.90;91.10
18894;DHT22;9579;49.488;8.226;2023-04-15T09:40:49;16.00;91.40
18894;DHT22;9579;49.488;8.226;2023-04-15T09:43:37;16.00;91.00
18894;DHT22;9579;49.488;8.226;2023-04-15T09:46:40;16.10;90.90
18894;DHT22;9579;49.488;8.226;2023-04-15T09:49:29;16.30;90.30
18894;DHT22;9579;49.488;8.226;2023-04-15T09:52:16;16.50;90.40
18894;DHT22;9579;49.488;8.226;2023-04-15T09:55:05;16.70;88.40
18894;DHT22;9579;49.488;8.226;2023-04-15T09:57:52;16.90;87.90
18894;DHT22;9579;49.488;8.226;2023-04-15T10:00:39;17.10;88.00
18894;DHT22;9579;49.488;8.226;2023-04-15T10:03:28;17.30;87.60
18894;DHT22;9579;49.488;8.226;2023-04-15T10:06:20;17.20;86.30
18894;DHT22;9579;49.488;8.226;2023-04-15T10:09:08;17.30;86.80
18894;DHT22;9579;49.488;8.226;2023-04-15T10:11:55;17.50;87.20
18894;DHT22;9579;49.488;8.226;2023-04-15T10:14:43;17.60;86.40
18894;DHT22;9579;49.488;8.226;2023-04-15T10:17:32;17.50;86.20
18894;DHT22;9579;49.488;8.226;2023-04-15T10:20:20;17.60;87.00
18894;DHT22;9579;49.488;8.226;2023-04-15T10:23:10;17.80;86.10
18894;DHT22;9579;49.488;8.226;2023-04-15T10:25:58;18.00;84.30
18894;DHT22;9579;49.488;8.226;2023-04-15T10:28:45;18.20;84.80
18894;DHT22;9579;49.488;8.226;2023-04-15T10:31:36;18.20;84.30
18894;DHT22;9579;49.488;8.226;2023-04-15T10:34:24;18.40;83.60
18894;DHT22;9579;49.488;8.226;2023-04-15T10:37:11;18.60;82.60
18894;DHT22;9579;49.488;8.226;2023-04-15T10:40:00;18.60;82.80
18894;DHT22;9579;49.488;8.226;2023-04-15T10:42:47;18.70;83.20
18894;DHT22;9579;49.488;8.226;2023-04-15T10:45:36;18.80;81.60
18894;DHT22;9579;49.488;8.226;2023-04-15T10:48:23;18.80;81.10
18894;DHT22;9579;49.488;8.226;2023-04-15T10:51:12;18.80;81.90
18894;DHT22;9579;49.488;8.226;2023-04-15T10:54:00;19.10;81.80
18894;DHT22;9579;49.488;8.226;2023-04-15T10:56:50;19.30;81.80
18894;DHT22;9579;49.488;8.226;2023-04-15T10:59:59;19.30;79.30
18894;DHT22;9579;49.488;8.226;2023-04-15T11:02:52;19.50;80.40
18894;DHT22;9579;49.488;8.226;2023-04-15T11:05:57;19.70;80.20
18894;DHT22;9579;49.488;8.226;2023-04-15T11:08:55;19.80;80.90
18894;DHT22;9579;49.488;8.226;2023-04-15T11:12:07;19.90;79.10
18894;DHT22;9579;49.488;8.226;2023-04-15T11:14:54;19.90;75.90
18894;DHT22;9579;49.488;8.226;2023-04-15T11:17:43;20.10;77.20
18894;DHT22;9579;49.488;8.226;2023-04-15T11:20:31;20.00;76.90
18894;DHT22;9579;49.488;8.226;2023-04-15T11:23:20;19.90;75.80
18894;DHT22;9579;49.488;8.226;2023-04-15T11:26:12;19.90;76.60
18894;DHT22;9579;49.488;8.226;2023-04-15T11:29:01;19.60;75.60
18894;DHT22;9579;49.488;8.226;2023-04-15T11:31:49;19.80;73.40
18894;DHT22;9579;49.488;8.226;2023-04-15T11:34:36;20.00;75.50
18894;DHT22;9579;49.488;8.226;2023-04-15T11:37:27;19.70;74.90
18894;DHT22;9579;49.488;8.226;2023-04-15T11:40:15;19.80;75.50
18894;DHT22;9579;49.488;8.226;2023-04-15T11:43:06;20.00;74.80
18894;DHT22;9579;49.488;8.226;2023-04-15T11:45:56;20.10;73.70
18894;DHT22;9579;49.488;8.226;2023-04-15T11:48:45;20.40;73.30
18894;DHT22;9579;49.488;8.226;2023-04-15T11:51:32;20.70;74.20
18894;DHT22;9579;49.488;8.226;2023-04-15T11:54:20;20.90;73.40
18894;DHT22;9579;49.488;8.226;2023-04-15T11:57:07;21.10;73.70
18894;DHT22;9579;49.488;8.226;2023-04-15T11:59:54;21.10;74.10
18894;DHT22;9579;49.488;8.226;2023-04-15T12:02:42;20.80;73.40
18894;DHT22;9579;49.488;8.226;2023-04-15T12:05:29;20.50;73.80
18894;DHT22;9579;49.488;8.226;2023-04-15T12:08:17;20.10;73.70
18894;DHT22;9579;49.488;8.226;2023-04-15T12:11:04;19.90;74.80
18894;DHT22;9579;49.488;8.226;2023-04-15T12:13:53;19.70;76.00
18894;DHT22;9579;49.488;8.226;2023-04-15T12:16:42;19.60;75.20
18894;DHT22;9579;49.488;8.226;2023-04-15T12:19:35;19.50;74.10
18894;DHT22;9579;49.488;8.226;2023-04-15T12:22:22;19.60;74.00
18894;DHT22;9579;49.488;8.226;2023-04-15T12:25:10;19.60;72.40
18894;DHT22;9579;49.488;8.226;2023-04-15T12:27:57;19.50;72.30
18894;DHT22;9579;49.488;8.226;2023-04-15T12:30:48;19.50;71.60
18894;DHT22;9579;49.488;8.226;2023-04-15T12:33:36;19.40;72.20
18894;DHT22;9579;49.488;8.226;2023-04-15T12:36:25;19.30;71.50
18894;DHT22;9579;49.488;8.226;2023-04-15T12:39:12;19.20;69.40
18894;DHT22;9579;49.488;8.226;2023-04-15T12:41:59;19.20;70.50
18894;DHT22;9579;49.488;8.226;2023-04-15T12:44:46;19.10;69.90
18894;DHT22;9579;49.488;8.226;2023-04-15T12:47:33;19.10;71.80
18894;DHT22;9579;49.488;8.226;2023-04-15T12:50:20;19.20;71.20
18894;DHT22;9579;49.488;8.226;2023-04-15T12:53:08;19.10;69.00
18894;DHT22;9579;49.488;8.226;2023-04-15T12:55:55;19.00;68.40
18894;DHT22;9579;49.488;8.226;2023-04-15T12:58:42;19.00;66.70
18894;DHT22;9579;49.488;8.226;2023-04-15T13:01:29;18.80;65.60
18894;DHT22;9579;49.488;8.226;2023-04-15T13:04:17;18.60;65.30
18894;DHT22;9579;49.488;8.226;2023-04-15T13:07:05;18.50;66.70
18894;DHT22;9579;49.488;8.226;2023-04-15T13:09:53;18.40;66.70
18894;DHT22;9579;49.488;8.226;2023-04-15T13:12:40;18.30;66.90
18894;DHT22;9579;49.488;8.226;2023-04-15T13:15:27;18.20;68.00
18894;DHT22;9579;49.488;8.226;2023-04-15T13:18:15;18.10;69.00
18894;DHT22;9579;49.488;8.226;2023-04-15T13:21:02;18.10;68.50
18894;DHT22;9579;49.488;8.226;2023-04-15T13:23:49;18.00;69.80
18894;DHT22;9579;49.488;8.226;2023-04-15T13:26:38;17.90;70.40
18894;DHT22;9579;49.488;8.226;2023-04-15T13:29:25;17.80;71.40
18894;DHT22;9579;49.488;8.226;2023-04-15T13:32:12;17.70;70.20
18894;DHT22;9579;49.488;8.226;2023-04-15T13:34:59;17.70;70.90
18894;DHT22;9579;49.488;8.226;2023-04-15T13:37:46;17.70;70.60
18894;DHT22;9579;49.488;8.226;2023-04-15T13:40:33;17.70;71.30
18894;DHT22;9579;49.488;8.226;2023-04-15T13:43:22;17.70;70.70
18894;DHT22;9579;49.488;8.226;2023-04-15T13:46:09;17.80;67.40
18894;DHT22;9579;49.488;8.226;2023-04-15T13:48:56;17.70;66.50
18894;DHT22;9579;49.488;8.226;2023-04-15T13:51:43;17.60;66.90
18894;DHT22;9579;49.488;8.226;2023-04-15T13:54:30;17.60;67.80
18894;DHT22;9579;49.488;8.226;2023-04-15T13:57:17;17.50;67.50
18894;DHT22;9579;49.488;8.226;2023-04-15T14:00:07;17.30;68.30
18894;DHT22;9579;49.488;8.226;2023-04-15T14:02:54;17.30;69.60
18894;DHT22;9579;49.488;8.226;2023-04-15T14:05:41;17.30;71.10
18894;DHT22;9579;49.488;8.226;2023-04-15T14:08:29;17.40;71.40
18894;DHT22;9579;49.488;8.226;2023-04-15T14:11:16;17.30;71.60
18894;DHT22;9579;49.488;8.226;2023-04-15T14:14:03;17.30;71.60
18894;DHT22;9579;49.488;8.226;2023-04-15T14:16:52;17.30;71.80
18894;DHT22;9579;49.488;8.226;2023-04-15T14:19:39;17.40;73.30
18894;DHT22;9579;49.488;8.226;2023-04-15T14:22:26;17.50;73.40
18894;DHT22;9579;49.488;8.226;2023-04-15T14:25:13;18.20;74.50
18894;DHT22;9579;49.488;8.226;2023-04-15T14:28:00;17.60;73.90
18894;DHT22;9579;49.488;8.226;2023-04-15T14:30:48;17.80;74.20
18894;DHT22;9579;49.488;8.226;2023-04-15T14:33:36;17.80;74.70
18894;DHT22;9579;49.488;8.226;2023-04-15T14:36:23;17.90;74.50
18894;DHT22;9579;49.488;8.226;2023-04-15T14:39:10;17.80;74.70
18894;DHT22;9579;49.488;8.226;2023-04-15T14:41:59;17.70;75.20
18894;DHT22;9579;49.488;8.226;2023-04-15T14:44:46;17.80;76.20
18894;DHT22;9579;49.488;8.226;2023-04-15T14:47:33;17.80;76.30
18894;DHT22;9579;49.488;8.226;2023-04-15T14:50:22;17.60;74.20
18894;DHT22;9579;49.488;8.226;2023-04-15T14:53:09;17.60;79.70
18894;DHT22;9579;49.488;8.226;2023-04-15T14:55:56;17.30;85.20
18894;DHT22;9579;49.488;8.226;2023-04-15T14:58:43;17.10;88.40
18894;DHT22;9579;49.488;8.226;2023-04-15T15:01:30;16.90;91.30
18894;DHT22;9579;49.488;8.226;2023-04-15T15:04:17;16.60;93.40
18894;DHT22;9579;49.488;8.226;2023-04-15T15:07:05;16.40;94.70
18894;DHT22;9579;49.488;8.226;2023-04-15T15:09:52;16.20;95.40
18894;DHT22;9579;49.488;8.226;2023-04-15T15:12:39;16.30;96.40
18894;DHT22;9579;49.488;8.226;2023-04-15T15:15:27;16.00;97.10
18894;DHT22;9579;49.488;8.226;2023-04-15T15:18:14;16.00;98.00
18894;DHT22;9579;49.488;8.226;2023-04-15T15:21:02;16.00;97.30
18894;DHT22;9579;49.488;8.226;2023-04-15T15:23:51;16.00;98.00
18894;DHT22;9579;49.488;8.226;2023-04-15T15:26:38;16.00;97.90
18894;DHT22;9579;49.488;8.226;2023-04-15T15:29:25;16.00;98.00
18894;DHT22;9579;49.488;8.226;2023-04-15T15:32:12;16.00;97.90
18894;DHT22;9579;49.488;8.226;2023-04-15T15:35:00;15.90;97.80
18894;DHT22;9579;49.488;8.226;2023-04-15T15:37:47;15.70;97.70
18894;DHT22;9579;49.488;8.226;2023-04-15T15:40:35;16.30;98.50
18894;DHT22;9579;49.488;8.226;2023-04-15T15:43:22;15.50;98.90
18894;DHT22;9579;49.488;8.226;2023-04-15T15:46:09;15.30;98.70
18894;DHT22;9579;49.488;8.226;2023-04-15T15:48:54;15.40;98.60
18894;DHT22;9579;49.488;8.226;2023-04-15T22:05:49;11.50;99.90
18894;DHT22;9579;49.488;8.226;2023-04-15T22:08:37;12.80;99.90
